createdAt,value
2022-09-15T00:00:23.343Z,13.98
2022-09-15T00:02:54.144Z,13.91
2022-09-15T00:05:24.532Z,13.89
2022-09-15T00:07:55.104Z,13.88
2022-09-15T00:10:25.749Z,13.86
2022-09-15T00:12:57.029Z,13.84
2022-09-15T00:15:27.289Z,13.75
2022-09-15T00:17:57.635Z,13.68
2022-09-15T00:20:28.223Z,13.57
2022-09-15T00:22:58.530Z,13.55
2022-09-15T00:25:28.776Z,13.50
2022-09-15T00:27:59.366Z,13.44
2022-09-15T00:30:29.942Z,13.43
2022-09-15T00:33:00.372Z,13.37
2022-09-15T00:35:30.399Z,13.33
2022-09-15T00:38:00.874Z,13.30
2022-09-15T00:40:31.787Z,13.39
2022-09-15T00:43:02.430Z,13.36
2022-09-15T00:45:32.759Z,13.28
2022-09-15T00:48:03.996Z,13.28
2022-09-15T00:50:36.419Z,13.28
2022-09-15T00:53:10.308Z,13.30
2022-09-15T00:55:46.825Z,13.30
2022-09-15T00:58:32.820Z,13.33
2022-09-15T01:01:05.736Z,13.31
2022-09-15T01:03:36.841Z,13.33
2022-09-15T01:06:15.475Z,13.31
2022-09-15T01:08:54.282Z,13.28
2022-09-15T01:11:24.935Z,13.20
2022-09-15T01:13:55.667Z,13.19
2022-09-15T01:16:49.473Z,13.19
2022-09-15T01:19:57.996Z,13.20
2022-09-15T01:22:55.810Z,13.07
2022-09-15T01:25:47.338Z,12.97
2022-09-15T01:28:48.619Z,12.95
2022-09-15T01:31:32.127Z,12.97
2022-09-15T01:34:18.170Z,12.96
2022-09-15T01:36:59.273Z,12.95
2022-09-15T01:39:43.139Z,12.93
2022-09-15T01:42:17.435Z,12.91
2022-09-15T01:44:53.070Z,12.85
2022-09-15T01:47:24.639Z,12.81
2022-09-15T01:50:03.680Z,12.76
2022-09-15T01:52:35.517Z,12.72
2022-09-15T01:55:17.899Z,12.72
2022-09-15T01:57:48.347Z,12.71
2022-09-15T02:00:19.026Z,12.71
2022-09-15T02:03:00.335Z,12.71
2022-09-15T02:05:42.688Z,12.68
2022-09-15T02:08:44.242Z,12.46
2022-09-15T02:11:21.671Z,12.51
2022-09-15T02:14:01.081Z,12.55
2022-09-15T02:16:36.645Z,12.49
2022-09-15T02:19:32.991Z,12.49
2022-09-15T02:22:12.320Z,12.45
2022-09-15T02:24:47.125Z,12.44
2022-09-15T02:27:25.615Z,12.44
2022-09-15T02:30:00.970Z,12.44
2022-09-15T02:32:33.909Z,12.40
2022-09-15T02:35:09.333Z,12.37
2022-09-15T02:37:40.489Z,12.38
2022-09-15T02:40:11.246Z,12.30
2022-09-15T02:42:43.896Z,12.24
2022-09-15T02:45:14.578Z,12.27
2022-09-15T02:47:44.892Z,12.25
2022-09-15T02:50:15.013Z,12.10
2022-09-15T02:52:45.564Z,12.11
2022-09-15T02:55:17.094Z,12.11
2022-09-15T02:57:47.521Z,12.10
2022-09-15T03:00:18.802Z,12.07
2022-09-15T03:02:52.229Z,12.03
2022-09-15T03:05:25.919Z,11.95
2022-09-15T03:07:57.021Z,11.94
2022-09-15T03:10:28.204Z,11.94
2022-09-15T03:12:58.805Z,11.87
2022-09-15T03:15:29.315Z,11.84
2022-09-15T03:18:00.000Z,11.80
2022-09-15T03:20:31.603Z,11.74
2022-09-15T03:23:04.731Z,11.70
2022-09-15T03:25:34.970Z,11.70
2022-09-15T03:28:05.392Z,11.70
2022-09-15T03:30:36.022Z,11.66
2022-09-15T03:33:06.975Z,11.62
2022-09-15T03:35:37.275Z,11.66
2022-09-15T03:38:07.229Z,11.63
2022-09-15T03:40:38.971Z,11.65
2022-09-15T03:43:10.081Z,11.62
2022-09-15T03:45:41.105Z,11.55
2022-09-15T03:48:11.626Z,11.53
2022-09-15T03:50:41.772Z,11.53
2022-09-15T03:53:11.923Z,11.52
2022-09-15T03:55:42.013Z,11.53
2022-09-15T03:58:12.555Z,11.51
2022-09-15T04:00:43.181Z,11.51
2022-09-15T04:03:14.556Z,11.55
2022-09-15T04:05:45.215Z,11.52
2022-09-15T04:08:16.045Z,11.49
2022-09-15T04:10:46.897Z,11.46
2022-09-15T04:13:17.114Z,11.43
2022-09-15T04:15:47.335Z,11.38
2022-09-15T04:18:17.413Z,11.31
2022-09-15T04:20:47.800Z,11.24
2022-09-15T04:23:18.311Z,11.22
2022-09-15T04:26:00.192Z,11.15
2022-09-15T04:28:33.376Z,11.14
2022-09-15T04:31:12.403Z,11.14
2022-09-15T04:33:44.606Z,11.11
2022-09-15T04:36:20.738Z,11.05
2022-09-15T04:38:52.329Z,11.03
2022-09-15T04:41:23.682Z,11.05
2022-09-15T04:43:54.381Z,10.93
2022-09-15T04:46:24.526Z,10.94
2022-09-15T04:48:55.119Z,10.91
2022-09-15T04:51:26.331Z,10.94
2022-09-15T04:53:57.118Z,10.93
2022-09-15T04:56:29.082Z,10.90
2022-09-15T04:59:04.165Z,10.85
2022-09-15T05:01:37.198Z,10.83
2022-09-15T05:04:07.388Z,10.73
2022-09-15T05:06:38.294Z,10.75
2022-09-15T05:09:10.590Z,10.75
2022-09-15T05:11:41.741Z,10.77
2022-09-15T05:14:12.538Z,10.77
2022-09-15T05:16:43.160Z,10.71
2022-09-15T05:19:14.001Z,10.67
2022-09-15T05:21:44.348Z,10.60
2022-09-15T05:24:14.439Z,10.57
2022-09-15T05:26:45.444Z,10.63
2022-09-15T05:29:16.376Z,10.60
2022-09-15T05:31:46.964Z,10.53
2022-09-15T05:34:17.482Z,10.46
2022-09-15T05:36:47.805Z,10.44
2022-09-15T05:39:18.455Z,10.42
2022-09-15T05:41:48.649Z,10.39
2022-09-15T05:44:18.683Z,10.40
2022-09-15T05:46:49.177Z,10.44
2022-09-15T05:49:19.892Z,10.46
2022-09-15T05:51:50.427Z,10.44
2022-09-15T05:54:20.559Z,10.40
2022-09-15T05:56:50.660Z,10.42
2022-09-15T05:59:20.832Z,10.46
2022-09-15T06:01:51.292Z,10.44
2022-09-15T06:04:21.867Z,10.40
2022-09-15T06:06:52.737Z,10.35
2022-09-15T06:09:22.823Z,10.35
2022-09-15T06:11:53.515Z,10.30
2022-09-15T06:14:24.036Z,10.33
2022-09-15T06:16:54.537Z,10.28
2022-09-15T06:19:25.071Z,10.25
2022-09-15T06:21:55.526Z,10.23
2022-09-15T06:24:25.605Z,10.19
2022-09-15T06:26:55.931Z,10.19
2022-09-15T06:29:26.807Z,10.17
2022-09-15T06:31:58.355Z,10.12
2022-09-15T06:34:28.827Z,10.10
2022-09-15T06:36:59.368Z,10.08
2022-09-15T06:39:30.178Z,10.02
2022-09-15T06:42:03.108Z,9.95
2022-09-15T06:44:34.651Z,9.91
2022-09-15T06:47:05.428Z,9.89
2022-09-15T06:49:36.072Z,9.88
2022-09-15T06:52:06.416Z,9.91
2022-09-15T06:54:36.421Z,9.89
2022-09-15T06:57:07.165Z,9.92
2022-09-15T06:59:37.666Z,10.01
2022-09-15T07:02:08.060Z,10.02
2022-09-15T07:04:41.359Z,10.01
2022-09-15T07:07:12.003Z,9.98
2022-09-15T07:09:46.022Z,9.95
2022-09-15T07:12:18.620Z,9.98
2022-09-15T07:14:48.635Z,9.98
2022-09-15T07:17:18.958Z,9.95
2022-09-15T07:19:49.648Z,9.89
2022-09-15T07:22:19.538Z,9.85
2022-09-15T07:24:49.563Z,9.79
2022-09-15T07:27:19.571Z,9.74
2022-09-15T07:29:49.997Z,9.77
2022-09-15T07:32:20.284Z,9.79
2022-09-15T07:34:50.775Z,9.84
2022-09-15T07:37:21.069Z,9.86
2022-09-15T07:39:51.478Z,9.88
2022-09-15T07:42:21.969Z,9.94
2022-09-15T07:44:53.305Z,9.94
2022-09-15T07:47:23.548Z,9.95
2022-09-15T07:49:54.301Z,9.94
2022-09-15T07:52:24.870Z,9.88
2022-09-15T07:54:55.770Z,9.89
2022-09-15T07:57:26.329Z,9.84
2022-09-15T07:59:56.543Z,9.79
2022-09-15T08:02:27.194Z,9.81
2022-09-15T08:04:59.257Z,9.77
2022-09-15T08:07:29.763Z,9.79
2022-09-15T08:09:59.836Z,9.78
2022-09-15T08:12:31.938Z,9.75
2022-09-15T08:15:02.955Z,9.81
2022-09-15T08:17:33.737Z,9.79
2022-09-15T08:20:04.531Z,9.85
2022-09-15T08:22:35.195Z,9.88
2022-09-15T08:25:05.998Z,9.86
2022-09-15T08:27:36.724Z,9.85
2022-09-15T08:30:08.508Z,9.91
2022-09-15T08:32:38.805Z,9.96
2022-09-15T08:35:10.109Z,10.02
2022-09-15T08:37:41.149Z,10.09
2022-09-15T08:40:22.564Z,10.15
2022-09-15T08:42:56.819Z,10.20
2022-09-15T08:45:32.153Z,10.26
2022-09-15T08:48:05.463Z,10.28
2022-09-15T08:50:43.369Z,10.32
2022-09-15T08:53:27.752Z,10.39
2022-09-15T08:56:09.802Z,10.39
2022-09-15T08:58:41.321Z,10.37
2022-09-15T09:01:48.543Z,10.39
2022-09-15T09:04:31.759Z,10.44
2022-09-15T09:07:20.543Z,10.39
2022-09-15T09:10:15.082Z,10.35
2022-09-15T09:12:54.387Z,10.33
2022-09-15T09:15:46.054Z,10.33
2022-09-15T09:18:34.747Z,10.33
2022-09-15T09:21:08.642Z,10.39
2022-09-15T09:24:12.677Z,10.42
2022-09-15T09:26:43.641Z,10.46
2022-09-15T09:29:21.422Z,10.50
2022-09-15T09:31:55.472Z,10.57
2022-09-15T09:34:45.850Z,10.60
2022-09-15T09:37:18.256Z,10.64
2022-09-15T09:39:49.562Z,10.64
2022-09-15T09:42:21.525Z,10.73
2022-09-15T09:44:52.114Z,10.80
2022-09-15T09:47:22.751Z,10.87
2022-09-15T09:49:53.049Z,10.90
2022-09-15T09:52:41.854Z,11.00
2022-09-15T09:55:21.260Z,11.05
2022-09-15T09:57:51.716Z,11.16
2022-09-15T10:00:35.624Z,11.19
2022-09-15T10:03:32.186Z,11.25
2022-09-15T10:06:24.596Z,11.25
2022-09-15T10:08:59.524Z,11.29
2022-09-15T10:11:45.972Z,11.39
2022-09-15T10:14:38.100Z,11.43
2022-09-15T10:17:42.725Z,11.55
2022-09-15T10:20:33.544Z,11.59
2022-09-15T10:23:28.122Z,11.65
2022-09-15T10:26:20.297Z,11.63
2022-09-15T10:29:10.305Z,11.73
2022-09-15T10:31:41.384Z,11.87
2022-09-15T10:34:33.393Z,12.01
2022-09-15T10:37:23.358Z,12.14
2022-09-15T10:40:01.272Z,12.18
2022-09-15T10:42:59.492Z,12.28
2022-09-15T10:45:40.266Z,12.89
2022-09-15T10:48:29.756Z,13.54
2022-09-15T10:51:21.322Z,13.89
2022-09-15T10:53:57.727Z,14.36
2022-09-15T10:56:42.577Z,14.49
2022-09-15T10:59:23.598Z,14.81
2022-09-15T11:02:24.093Z,15.00
2022-09-15T11:05:21.961Z,14.97
2022-09-15T11:08:04.408Z,14.98
2022-09-15T11:10:50.146Z,15.21
2022-09-15T11:13:27.188Z,15.52
2022-09-15T11:16:36.527Z,15.36
2022-09-15T11:19:09.831Z,15.43
2022-09-15T11:21:48.435Z,15.56
2022-09-15T11:24:38.466Z,15.76
2022-09-15T11:27:14.566Z,15.76
2022-09-15T11:30:08.510Z,15.85
2022-09-15T11:32:48.975Z,15.76
2022-09-15T11:35:36.339Z,16.22
2022-09-15T11:38:35.463Z,15.66
2022-09-15T11:41:24.027Z,15.24
2022-09-15T11:44:07.528Z,15.76
2022-09-15T11:47:12.494Z,16.07
2022-09-15T11:49:57.751Z,16.54
2022-09-15T11:52:36.326Z,16.86
2022-09-15T11:55:20.208Z,16.76
2022-09-15T11:57:56.781Z,17.34
2022-09-15T12:00:27.480Z,17.53
2022-09-15T12:03:22.426Z,17.78
2022-09-15T12:06:08.939Z,18.15
2022-09-15T12:08:45.831Z,18.33
2022-09-15T12:11:24.522Z,18.09
2022-09-15T12:13:57.373Z,18.56
2022-09-15T12:16:29.375Z,18.64
2022-09-15T12:19:15.824Z,18.84
2022-09-15T12:22:04.593Z,19.15
2022-09-15T12:24:40.990Z,18.84
2022-09-15T12:27:18.226Z,19.45
2022-09-15T12:29:57.110Z,19.97
2022-09-15T12:32:30.927Z,20.26
2022-09-15T12:35:04.877Z,20.99
2022-09-15T12:37:50.708Z,21.77
2022-09-15T12:40:41.547Z,21.43
2022-09-15T12:43:14.868Z,21.20
2022-09-15T12:45:59.644Z,21.78
2022-09-15T12:48:34.796Z,21.61
2022-09-15T12:51:14.022Z,22.01
2022-09-15T12:54:01.838Z,21.57
2022-09-15T12:56:35.127Z,21.46
2022-09-15T12:59:16.999Z,21.26
2022-09-15T13:01:50.444Z,21.37
2022-09-15T13:04:43.065Z,21.49
2022-09-15T13:07:22.248Z,20.41
2022-09-15T13:10:00.458Z,19.83
2022-09-15T13:12:37.995Z,19.73
2022-09-15T13:15:14.624Z,19.44
2022-09-15T13:17:48.937Z,19.56
2022-09-15T13:20:31.104Z,19.82
2022-09-15T13:23:03.496Z,19.62
2022-09-15T13:25:35.208Z,19.42
2022-09-15T13:28:06.282Z,20.76
2022-09-15T13:30:55.343Z,21.71
2022-09-15T13:40:47.303Z,21.94
2022-09-15T13:43:51.591Z,22.42
2022-09-15T13:46:58.667Z,22.31
2022-09-15T13:49:36.824Z,22.82
2022-09-15T13:52:32.458Z,22.77
2022-09-15T13:55:15.455Z,23.40
2022-09-15T14:01:02.575Z,23.40
2022-09-15T14:04:09.331Z,23.38
2022-09-15T14:06:43.071Z,24.09
2022-09-15T14:09:48.807Z,23.48
2022-09-15T14:12:20.045Z,23.88
2022-09-15T14:14:55.908Z,24.50
2022-09-15T14:17:32.858Z,24.92
2022-09-15T14:20:05.560Z,24.74
2022-09-15T14:22:36.887Z,24.71
2022-09-15T14:25:16.345Z,26.10
2022-09-15T14:27:49.177Z,26.04
2022-09-15T14:30:25.716Z,24.96
2022-09-15T14:33:01.343Z,24.68
2022-09-15T14:35:40.158Z,25.40
2022-09-15T14:38:23.005Z,25.73
2022-09-15T14:40:55.759Z,24.13
2022-09-15T14:43:28.097Z,23.51
2022-09-15T14:46:10.944Z,22.25
2022-09-15T14:48:41.694Z,24.03
2022-09-15T14:51:34.333Z,26.71
2022-09-15T14:54:06.414Z,24.72
2022-09-15T14:56:41.064Z,25.11
2022-09-15T14:59:28.697Z,24.12
2022-09-15T15:02:26.237Z,26.21
2022-09-15T15:05:09.305Z,24.27
2022-09-15T15:07:41.422Z,25.40
2022-09-15T15:10:31.140Z,26.87
2022-09-15T15:13:13.371Z,27.88
2022-09-15T15:15:44.192Z,27.78
2022-09-15T15:18:39.756Z,27.13
2022-09-15T15:21:46.493Z,27.37
2022-09-15T15:24:25.058Z,25.35
2022-09-15T15:26:55.239Z,24.29
2022-09-15T15:29:44.392Z,24.67
2022-09-15T15:32:22.438Z,24.08
2022-09-15T15:34:55.755Z,26.48
2022-09-15T15:37:25.785Z,26.95
2022-09-15T15:39:58.154Z,26.99
2022-09-15T15:42:29.880Z,27.04
2022-09-15T15:45:03.164Z,27.03
2022-09-15T15:47:37.321Z,27.08
2022-09-15T15:50:23.318Z,28.73
2022-09-15T15:52:54.669Z,28.53
2022-09-15T15:55:29.956Z,28.45
2022-09-15T15:58:00.283Z,28.98
2022-09-15T16:00:52.868Z,28.13
2022-09-15T16:03:24.452Z,27.71
2022-09-15T16:05:59.733Z,28.60
2022-09-15T16:08:41.109Z,29.22
2022-09-15T16:11:16.322Z,28.33
2022-09-15T16:13:46.765Z,28.27
2022-09-15T16:16:21.063Z,27.89
2022-09-15T16:18:52.585Z,27.84
2022-09-15T16:21:38.182Z,28.35
2022-09-15T16:24:16.741Z,30.44
2022-09-15T16:26:50.629Z,31.57
2022-09-15T16:29:28.007Z,30.76
2022-09-15T16:31:58.677Z,29.21
2022-09-15T16:34:29.225Z,27.38
2022-09-15T16:36:59.318Z,25.26
2022-09-15T16:39:29.371Z,24.96
2022-09-15T16:44:34.683Z,25.93
2022-09-15T16:47:07.472Z,24.85
2022-09-15T16:49:40.425Z,24.60
2022-09-15T16:52:14.764Z,24.41
2022-09-15T16:54:44.966Z,25.62
2022-09-15T16:57:15.335Z,27.43
2022-09-15T16:59:45.874Z,27.94
2022-09-15T17:02:16.540Z,27.86
2022-09-15T17:04:46.498Z,28.75
2022-09-15T17:07:16.354Z,28.45
2022-09-15T17:09:48.218Z,28.19
2022-09-15T17:12:18.918Z,28.87
2022-09-15T17:14:49.069Z,29.12
2022-09-15T17:17:26.626Z,28.98
2022-09-15T17:19:57.473Z,29.80
2022-09-15T17:22:28.524Z,29.39
2022-09-15T17:24:58.886Z,29.51
2022-09-15T17:27:28.963Z,28.98
2022-09-15T17:29:59.003Z,29.53
2022-09-15T17:32:34.164Z,29.35
2022-09-15T17:35:20.201Z,28.33
2022-09-15T17:37:51.215Z,29.04
2022-09-15T17:40:23.001Z,28.49
2022-09-15T17:42:54.196Z,28.42
2022-09-15T17:45:27.394Z,26.51
2022-09-15T17:47:58.579Z,25.93
2022-09-15T17:50:31.053Z,25.19
2022-09-15T17:53:02.143Z,24.29
2022-09-15T17:55:35.079Z,24.63
2022-09-15T17:58:06.823Z,24.03
2022-09-15T18:00:39.377Z,24.41
2022-09-15T18:03:15.202Z,25.28
2022-09-15T18:05:46.701Z,24.53
2022-09-15T18:08:18.119Z,24.40
2022-09-15T18:10:48.772Z,24.43
2022-09-15T18:13:21.802Z,24.40
2022-09-15T18:15:52.722Z,25.58
2022-09-15T18:18:25.972Z,25.73
2022-09-15T18:20:59.223Z,26.28
2022-09-15T18:23:30.719Z,26.93
2022-09-15T18:26:01.439Z,27.24
2022-09-15T18:28:31.802Z,27.17
2022-09-15T18:31:01.961Z,27.18
2022-09-15T18:33:32.225Z,27.61
2022-09-15T18:36:02.762Z,26.85
2022-09-15T18:38:33.223Z,26.95
2022-09-15T18:41:03.513Z,27.92
2022-09-15T18:43:33.878Z,27.75
2022-09-15T18:46:04.624Z,26.87
2022-09-15T18:48:35.350Z,26.55
2022-09-15T18:51:10.829Z,26.28
2022-09-15T18:53:42.230Z,26.35
2022-09-15T18:56:14.084Z,26.73
2022-09-15T18:58:44.310Z,26.48
2022-09-15T19:01:14.229Z,26.47
2022-09-15T19:03:44.376Z,26.45
2022-09-15T19:06:14.778Z,26.78
2022-09-15T19:08:46.169Z,26.48
2022-09-15T19:11:16.408Z,26.42
2022-09-15T19:13:46.889Z,26.45
2022-09-15T19:16:20.178Z,26.13
2022-09-15T19:18:54.848Z,25.81
2022-09-15T19:21:27.395Z,25.86
2022-09-15T19:23:59.371Z,26.24
2022-09-15T19:26:30.704Z,26.07
2022-09-15T19:29:01.627Z,26.29
2022-09-15T19:31:32.389Z,26.01
2022-09-15T19:34:05.434Z,25.29
2022-09-15T19:36:35.902Z,25.30
2022-09-15T19:39:06.818Z,25.05
2022-09-15T19:41:36.846Z,24.74
2022-09-15T19:44:09.514Z,24.60
2022-09-15T19:46:41.481Z,24.50
2022-09-15T19:49:12.642Z,24.29
2022-09-15T19:51:43.735Z,24.16
2022-09-15T19:54:13.864Z,24.10
2022-09-15T19:56:43.742Z,23.72
2022-09-15T19:59:13.684Z,23.44
2022-09-15T20:01:43.882Z,23.31
2022-09-15T20:04:15.161Z,23.17
2022-09-15T20:06:45.712Z,23.37
2022-09-15T20:09:16.883Z,23.08
2022-09-15T20:11:47.305Z,22.92
2022-09-15T20:14:17.794Z,23.00
2022-09-15T20:16:48.234Z,23.13
2022-09-15T20:19:19.598Z,22.90
2022-09-15T20:21:51.080Z,22.83
2022-09-15T20:24:22.191Z,22.87
2022-09-15T20:26:54.211Z,22.66
2022-09-15T20:29:25.254Z,22.56
2022-09-15T20:31:55.758Z,22.56
2022-09-15T20:34:25.755Z,22.41
2022-09-15T20:36:56.869Z,22.35
2022-09-15T20:39:27.795Z,22.19
2022-09-15T20:41:58.915Z,21.98
2022-09-15T20:44:29.467Z,21.98
2022-09-15T20:46:59.900Z,21.95
2022-09-15T20:49:30.537Z,21.80
2022-09-15T20:52:00.865Z,21.64
2022-09-15T20:54:31.230Z,21.57
2022-09-15T20:57:02.707Z,21.32
2022-09-15T20:59:33.617Z,21.12
2022-09-15T21:02:05.945Z,20.98
2022-09-15T21:04:36.625Z,20.86
2022-09-15T21:07:06.865Z,20.76
2022-09-15T21:09:37.732Z,20.71
2022-09-15T21:12:08.057Z,20.52
2022-09-15T21:14:37.996Z,20.38
2022-09-15T21:17:08.190Z,20.27
2022-09-15T21:19:39.162Z,20.07
2022-09-15T21:22:10.024Z,19.87
2022-09-15T21:24:40.069Z,19.75
2022-09-15T21:27:28.453Z,19.61
2022-09-15T21:29:59.267Z,19.46
2022-09-15T21:32:31.111Z,19.36
2022-09-15T21:35:01.392Z,19.19
2022-09-15T21:37:31.432Z,19.03
2022-09-15T21:40:01.595Z,18.83
2022-09-15T21:42:31.510Z,18.68
2022-09-15T21:45:02.533Z,18.60
2022-09-15T21:47:35.239Z,18.43
2022-09-15T21:50:05.773Z,18.35
2022-09-15T21:52:35.888Z,18.29
2022-09-15T21:55:05.948Z,18.21
2022-09-15T21:57:35.991Z,18.33
2022-09-15T22:00:08.313Z,18.42
2022-09-15T22:02:39.155Z,18.46
2022-09-15T22:05:09.569Z,18.40
2022-09-15T22:07:41.408Z,18.47
2022-09-15T22:10:11.831Z,18.52
2022-09-15T22:12:42.709Z,18.53
2022-09-15T22:15:13.552Z,18.49
2022-09-15T22:17:43.511Z,18.39
2022-09-15T22:20:14.270Z,18.32
2022-09-15T22:22:45.552Z,18.24
2022-09-15T22:25:21.654Z,18.10
2022-09-15T22:27:52.587Z,18.05
2022-09-15T22:30:23.075Z,18.05
2022-09-15T22:32:54.637Z,18.08
2022-09-15T22:35:26.250Z,18.01
2022-09-15T22:37:56.738Z,17.97
2022-09-15T22:40:27.362Z,17.81
2022-09-15T22:42:57.418Z,17.73
2022-09-15T22:45:27.519Z,17.60
2022-09-15T22:47:57.994Z,17.54
2022-09-15T22:50:28.695Z,17.44
2022-09-15T22:52:59.357Z,17.33
2022-09-15T22:55:29.693Z,17.29
2022-09-15T22:57:59.911Z,17.20
2022-09-15T23:00:30.246Z,17.15
2022-09-15T23:03:00.454Z,17.02
2022-09-15T23:05:30.859Z,16.92
2022-09-15T23:08:01.236Z,16.85
2022-09-15T23:10:32.869Z,16.80
2022-09-15T23:13:03.669Z,16.79
2022-09-15T23:15:36.408Z,16.71
2022-09-15T23:18:06.825Z,16.72
2022-09-15T23:20:36.959Z,16.65
2022-09-15T23:23:07.590Z,16.64
2022-09-15T23:25:38.626Z,16.65
2022-09-15T23:28:09.142Z,16.58
2022-09-15T23:30:40.476Z,16.42
2022-09-15T23:33:11.361Z,16.34
2022-09-15T23:35:42.498Z,16.25
2022-09-15T23:38:12.949Z,16.16
2022-09-15T23:40:44.215Z,16.13
2022-09-15T23:43:15.334Z,16.07
2022-09-15T23:45:47.483Z,15.96
2022-09-15T23:48:18.045Z,15.91
2022-09-15T23:50:48.325Z,15.87
2022-09-15T23:53:19.533Z,15.83
2022-09-15T23:55:50.550Z,15.70
2022-09-15T23:58:20.813Z,15.66
